createdAt,value
2023-02-11T00:00:42.579Z,29.23
2023-02-11T00:03:45.204Z,30.83
2023-02-11T00:06:47.899Z,27.47
2023-02-11T00:09:50.551Z,32.08
2023-02-11T00:12:54.074Z,34.28
2023-02-11T00:15:56.724Z,31.17
2023-02-11T00:19:02.939Z,29.10
2023-02-11T00:22:08.419Z,28.70
2023-02-11T00:25:32.014Z,32.42
2023-02-11T00:28:34.584Z,29.88
2023-02-11T00:31:37.276Z,33.30
2023-02-11T00:34:41.254Z,30.38
2023-02-11T00:37:43.847Z,36.47
2023-02-11T00:40:46.492Z,32.28
2023-02-11T00:43:49.528Z,31.95
2023-02-11T00:46:54.614Z,27.38
2023-02-11T00:49:59.288Z,31.55
2023-02-11T00:53:05.866Z,30.67
2023-02-11T00:56:11.528Z,29.90
2023-02-11T00:59:17.236Z,35.47
2023-02-11T01:02:19.847Z,37.13
2023-02-11T01:05:22.557Z,33.53
2023-02-11T01:08:25.324Z,39.00
2023-02-11T01:11:30.990Z,35.15
2023-02-11T01:14:33.595Z,33.47
2023-02-11T01:17:36.360Z,37.55
2023-02-11T01:20:39.025Z,33.85
2023-02-11T01:23:41.671Z,36.40
2023-02-11T01:26:44.208Z,32.50
2023-02-11T01:29:46.786Z,36.70
2023-02-11T01:32:49.339Z,40.42
2023-02-11T01:35:54.839Z,30.17
2023-02-11T01:38:57.342Z,34.83
2023-02-11T01:41:59.998Z,33.38
2023-02-11T01:45:23.332Z,27.10
2023-02-11T01:48:38.962Z,31.80
2023-02-11T01:51:47.088Z,33.58
2023-02-11T01:55:14.241Z,34.93
2023-02-11T01:58:16.866Z,31.48
2023-02-11T02:01:24.687Z,32.42
2023-02-11T02:04:31.797Z,35.13
2023-02-11T02:07:45.740Z,33.60
2023-02-11T02:10:54.761Z,31.73
2023-02-11T02:13:57.504Z,34.28
2023-02-11T02:17:00.112Z,33.85
2023-02-11T02:20:32.402Z,35.17
2023-02-11T02:23:53.074Z,37.60
2023-02-11T02:27:16.399Z,35.50
2023-02-11T02:30:21.952Z,38.15
2023-02-11T02:33:29.819Z,33.25
2023-02-11T02:36:54.825Z,32.38
2023-02-11T02:39:59.804Z,40.28
2023-02-11T02:43:03.167Z,35.83
2023-02-11T02:46:24.284Z,31.88
2023-02-11T02:49:26.875Z,37.28
2023-02-11T02:52:39.941Z,33.65
2023-02-11T02:55:48.728Z,36.38
2023-02-11T02:58:51.352Z,32.90
2023-02-11T03:02:24.467Z,38.40
2023-02-11T03:05:52.076Z,36.78
2023-02-11T03:09:14.750Z,36.22
2023-02-11T03:12:17.873Z,35.20
2023-02-11T03:15:22.699Z,35.77
2023-02-11T03:18:28.366Z,29.17
2023-02-11T03:21:36.577Z,31.52
2023-02-11T03:24:42.681Z,28.30
2023-02-11T03:28:06.113Z,27.90
2023-02-11T03:31:55.331Z,27.83
2023-02-11T03:35:02.106Z,33.40
2023-02-11T03:38:16.121Z,27.55
2023-02-11T03:41:21.579Z,27.40
2023-02-11T03:44:25.476Z,31.85
2023-02-11T03:47:30.477Z,30.07
2023-02-11T03:50:34.051Z,30.90
2023-02-11T03:53:39.048Z,31.80
2023-02-11T03:56:52.658Z,29.75
2023-02-11T03:59:59.499Z,26.13
2023-02-11T04:03:02.701Z,36.33
2023-02-11T04:06:05.784Z,25.23
2023-02-11T04:09:08.968Z,24.95
2023-02-11T04:12:11.599Z,32.83
2023-02-11T04:15:14.682Z,30.73
2023-02-11T04:18:17.378Z,34.87
2023-02-11T04:21:20.085Z,32.70
2023-02-11T04:24:22.731Z,34.92
2023-02-11T04:27:25.434Z,33.00
2023-02-11T04:30:28.026Z,57.90
2023-02-11T04:33:30.565Z,36.80
2023-02-11T04:36:33.052Z,39.42
2023-02-11T04:39:35.874Z,32.55
2023-02-11T04:42:38.451Z,33.92
2023-02-11T04:45:41.031Z,36.47
2023-02-11T04:48:43.833Z,36.97
2023-02-11T04:51:49.207Z,36.17
2023-02-11T04:54:52.104Z,37.33
2023-02-11T04:57:55.491Z,37.38
2023-02-11T05:01:10.046Z,39.28
2023-02-11T05:04:12.822Z,32.20
2023-02-11T05:07:15.377Z,33.28
2023-02-11T05:10:18.171Z,32.78
2023-02-11T05:13:20.715Z,34.60
2023-02-11T05:16:23.388Z,35.33
2023-02-11T05:19:26.038Z,37.93
2023-02-11T05:22:28.671Z,39.08
2023-02-11T05:25:31.291Z,47.55
2023-02-11T05:28:33.952Z,50.72
2023-02-11T05:31:36.593Z,52.25
2023-02-11T05:34:39.192Z,47.67
2023-02-11T05:37:41.791Z,47.50
2023-02-11T05:40:44.808Z,50.67
2023-02-11T05:43:53.686Z,55.85
2023-02-11T05:46:56.415Z,46.13
2023-02-11T05:49:59.034Z,43.63
2023-02-11T05:53:01.686Z,40.65
2023-02-11T05:56:04.573Z,43.80
2023-02-11T05:59:07.155Z,45.00
2023-02-11T06:02:10.700Z,49.05
2023-02-11T06:05:13.340Z,57.17
2023-02-11T06:08:16.016Z,48.40
2023-02-11T06:11:18.877Z,42.00
2023-02-11T06:14:21.411Z,40.20
2023-02-11T06:17:23.950Z,44.60
2023-02-11T06:20:26.579Z,44.90
2023-02-11T06:23:30.452Z,40.28
2023-02-11T06:26:33.159Z,47.10
2023-02-11T06:29:36.034Z,42.25
2023-02-11T06:32:44.521Z,43.03
2023-02-11T06:35:47.701Z,39.90
2023-02-11T06:38:50.519Z,42.88
2023-02-11T06:41:53.115Z,49.38
2023-02-11T06:44:55.640Z,50.67
2023-02-11T06:47:58.201Z,49.20
2023-02-11T06:51:05.710Z,52.50
2023-02-11T06:54:08.492Z,52.30
2023-02-11T06:57:10.966Z,49.92
2023-02-11T07:00:14.177Z,48.20
2023-02-11T07:03:16.835Z,44.90
2023-02-11T07:06:22.293Z,46.43
2023-02-11T07:09:24.826Z,52.97
2023-02-11T07:12:27.451Z,45.35
2023-02-11T07:15:30.043Z,58.20
2023-02-11T07:18:32.716Z,54.50
2023-02-11T07:21:35.255Z,67.13
2023-02-11T07:24:37.767Z,62.70
2023-02-11T07:27:40.314Z,62.75
2023-02-11T07:30:42.972Z,58.50
2023-02-11T07:33:46.194Z,47.60
2023-02-11T07:36:49.218Z,43.50
2023-02-11T07:39:51.823Z,46.25
2023-02-11T07:42:54.328Z,48.10
2023-02-11T07:45:56.893Z,49.28
2023-02-11T07:48:59.420Z,47.15
2023-02-11T07:52:01.959Z,45.50
2023-02-11T07:55:05.063Z,48.45
2023-02-11T07:58:07.753Z,43.53
2023-02-11T08:01:17.458Z,41.92
2023-02-11T08:04:20.099Z,47.58
2023-02-11T08:07:22.744Z,47.27
2023-02-11T08:10:28.271Z,52.80
2023-02-11T08:13:30.982Z,49.75
2023-02-11T08:16:35.872Z,48.85
2023-02-11T08:19:39.841Z,49.05
2023-02-11T08:22:42.416Z,48.40
2023-02-11T08:25:45.046Z,46.45
2023-02-11T08:28:50.255Z,43.70
2023-02-11T08:31:52.833Z,46.90
2023-02-11T08:34:55.359Z,57.53
2023-02-11T08:37:58.023Z,60.93
2023-02-11T08:41:00.887Z,51.47
2023-02-11T08:44:03.557Z,48.28
2023-02-11T08:47:06.120Z,43.67
2023-02-11T08:50:09.284Z,49.30
2023-02-11T08:53:11.843Z,42.97
2023-02-11T08:56:16.328Z,38.67
2023-02-11T08:59:18.896Z,40.08
2023-02-11T09:02:21.598Z,34.10
2023-02-11T09:05:24.555Z,41.90
2023-02-11T09:08:27.232Z,46.17
2023-02-11T09:11:32.672Z,45.72
2023-02-11T09:14:35.304Z,39.97
2023-02-11T09:17:37.894Z,38.15
2023-02-11T09:20:40.518Z,39.45
2023-02-11T09:23:47.949Z,36.17
2023-02-11T09:26:50.576Z,39.55
2023-02-11T09:29:53.204Z,48.85
2023-02-11T09:32:55.733Z,36.15
2023-02-11T09:36:01.893Z,37.67
2023-02-11T09:39:06.045Z,34.43
2023-02-11T09:42:46.072Z,35.25
2023-02-11T09:45:49.894Z,35.13
2023-02-11T09:48:54.759Z,28.13
2023-02-11T09:52:09.583Z,26.80
2023-02-11T09:55:34.197Z,28.17
2023-02-11T09:58:39.211Z,32.60
2023-02-11T10:01:49.022Z,24.13
2023-02-11T10:05:05.237Z,31.10
2023-02-11T10:08:40.712Z,28.08
2023-02-11T10:12:12.348Z,19.67
2023-02-11T10:15:48.369Z,25.60
2023-02-11T10:19:00.421Z,27.38
2023-02-11T10:22:23.140Z,18.17
2023-02-11T10:25:38.854Z,25.13
2023-02-11T10:28:44.601Z,16.23
2023-02-11T10:31:48.299Z,22.98
2023-02-11T10:34:52.380Z,24.25
2023-02-11T10:37:56.109Z,22.17
2023-02-11T10:40:58.778Z,24.48
2023-02-11T10:44:01.831Z,25.63
2023-02-11T10:47:13.032Z,20.92
2023-02-11T10:50:29.917Z,24.95
2023-02-11T10:53:33.814Z,20.52
2023-02-11T10:56:38.313Z,22.05
2023-02-11T10:59:40.923Z,26.50
2023-02-11T11:02:44.633Z,23.25
2023-02-11T11:05:57.415Z,24.25
2023-02-11T11:09:04.754Z,24.30
2023-02-11T11:12:25.504Z,20.45
2023-02-11T11:15:32.704Z,24.10
2023-02-11T11:18:35.782Z,20.60
2023-02-11T11:21:50.465Z,30.65
2023-02-11T11:24:55.339Z,21.75
2023-02-11T11:28:01.390Z,22.92
2023-02-11T11:31:04.184Z,24.83
2023-02-11T11:34:29.914Z,29.30
2023-02-11T11:37:34.583Z,21.13
2023-02-11T11:40:37.615Z,24.00
2023-02-11T11:44:14.660Z,22.77
2023-02-11T11:47:25.637Z,25.13
2023-02-11T11:50:35.259Z,27.15
2023-02-11T11:53:51.453Z,25.80
2023-02-11T11:57:00.076Z,24.42
2023-02-11T12:00:02.772Z,23.35
2023-02-11T12:03:39.694Z,23.37
2023-02-11T12:06:47.949Z,25.08
2023-02-11T12:10:11.955Z,24.10
2023-02-11T12:13:29.751Z,23.20
2023-02-11T12:16:35.293Z,23.85
2023-02-11T12:20:02.268Z,26.93
2023-02-11T12:23:25.790Z,29.13
2023-02-11T12:26:42.136Z,24.00
2023-02-11T12:30:03.303Z,28.75
2023-02-11T12:33:26.153Z,27.20
2023-02-11T12:36:47.379Z,29.23
2023-02-11T12:40:11.242Z,28.35
2023-02-11T12:43:35.588Z,26.48
2023-02-11T12:47:03.210Z,23.85
2023-02-11T12:50:30.166Z,22.17
2023-02-11T12:53:39.110Z,25.20
2023-02-11T12:56:47.920Z,30.20
2023-02-11T13:00:12.774Z,23.75
2023-02-11T13:03:32.854Z,26.25
2023-02-11T13:06:40.418Z,23.70
2023-02-11T13:09:48.945Z,22.57
2023-02-11T13:13:11.532Z,20.65
2023-02-11T13:16:37.550Z,29.15
2023-02-11T13:20:02.884Z,22.38
2023-02-11T13:23:10.202Z,34.53
2023-02-11T13:26:27.766Z,31.13
2023-02-11T13:30:04.429Z,41.05
2023-02-11T13:33:17.750Z,37.35
2023-02-11T13:36:28.877Z,29.13
2023-02-11T13:39:31.496Z,23.88
2023-02-11T13:42:47.828Z,30.90
2023-02-11T13:46:00.154Z,27.38
2023-02-11T13:49:02.805Z,30.77
2023-02-11T13:52:16.613Z,44.03
2023-02-11T13:55:23.653Z,29.40
2023-02-11T13:58:29.281Z,34.43
2023-02-11T14:02:17.852Z,30.17
2023-02-11T14:05:48.232Z,27.13
2023-02-11T14:09:10.523Z,35.08
2023-02-11T14:12:22.543Z,30.98
2023-02-11T14:15:38.210Z,28.43
2023-02-11T14:18:52.001Z,31.17
2023-02-11T14:22:02.374Z,31.77
2023-02-11T14:25:16.208Z,30.75
2023-02-11T14:28:26.881Z,32.22
2023-02-11T14:31:34.246Z,40.60
2023-02-11T14:35:44.660Z,36.60
2023-02-11T14:39:06.628Z,42.35
2023-02-11T14:42:19.981Z,38.70
2023-02-11T14:45:30.527Z,37.42
2023-02-11T14:48:38.305Z,38.57
2023-02-11T14:51:44.183Z,38.60
2023-02-11T14:54:49.312Z,33.22
2023-02-11T14:58:28.077Z,41.00
2023-02-11T15:01:40.838Z,39.53
2023-02-11T15:04:44.057Z,49.50
2023-02-11T15:07:51.915Z,50.20
2023-02-11T15:10:55.508Z,49.78
2023-02-11T15:14:01.940Z,39.83
2023-02-11T15:17:09.425Z,44.72
2023-02-11T15:20:26.861Z,45.53
2023-02-11T15:23:33.446Z,44.55
2023-02-11T15:26:36.254Z,42.80
2023-02-11T15:29:41.782Z,41.35
2023-02-11T15:32:53.254Z,44.42
2023-02-11T15:35:57.023Z,44.60
2023-02-11T15:39:42.227Z,46.45
2023-02-11T15:43:14.223Z,39.42
2023-02-11T15:46:37.913Z,41.95
2023-02-11T15:49:45.431Z,47.47
2023-02-11T15:53:00.165Z,46.30
2023-02-11T15:56:25.414Z,46.35
2023-02-11T15:59:36.255Z,46.42
2023-02-11T16:02:45.288Z,52.90
2023-02-11T16:05:47.929Z,53.60
2023-02-11T16:09:22.149Z,43.40
2023-02-11T16:12:27.283Z,43.47
2023-02-11T16:15:30.655Z,44.83
2023-02-11T16:18:52.024Z,44.97
2023-02-11T16:22:07.981Z,44.03
2023-02-11T16:25:19.279Z,42.13
2023-02-11T16:28:22.183Z,32.55
2023-02-11T16:31:33.465Z,39.00
2023-02-11T16:34:41.705Z,37.17
2023-02-11T16:37:44.425Z,42.25
2023-02-11T16:40:49.464Z,36.37
2023-02-11T16:43:52.378Z,45.13
2023-02-11T16:47:01.658Z,40.25
2023-02-11T16:50:08.564Z,42.40
2023-02-11T16:53:11.733Z,43.08
2023-02-11T16:56:19.299Z,44.63
2023-02-11T16:59:22.023Z,45.63
2023-02-11T17:02:32.253Z,39.55
2023-02-11T17:05:53.216Z,40.60
2023-02-11T17:08:57.709Z,43.05
2023-02-11T17:12:00.553Z,39.00
2023-02-11T17:15:06.632Z,34.97
2023-02-11T17:18:14.755Z,41.53
2023-02-11T17:21:29.861Z,40.15
2023-02-11T17:24:32.743Z,41.30
2023-02-11T17:27:38.612Z,43.10
2023-02-11T17:30:44.251Z,35.03
2023-02-11T17:33:56.668Z,41.13
2023-02-11T17:37:00.349Z,46.70
2023-02-11T17:40:03.208Z,45.13
2023-02-11T17:43:08.117Z,42.80
2023-02-11T17:46:13.110Z,43.75
2023-02-11T17:49:23.671Z,37.30
2023-02-11T17:52:28.284Z,39.42
2023-02-11T17:55:34.873Z,36.67
2023-02-11T17:58:37.533Z,44.60
2023-02-11T18:01:42.399Z,37.60
2023-02-11T18:04:45.316Z,40.90
2023-02-11T18:07:48.855Z,40.65
2023-02-11T18:10:51.524Z,37.90
2023-02-11T18:14:02.366Z,36.43
2023-02-11T18:17:07.696Z,36.28
2023-02-11T18:20:10.848Z,35.30
2023-02-11T18:23:13.606Z,29.33
2023-02-11T18:26:18.325Z,29.88
2023-02-11T18:29:23.596Z,33.13
2023-02-11T18:32:27.063Z,36.58
2023-02-11T18:35:32.006Z,37.53
2023-02-11T18:38:35.676Z,34.80
2023-02-11T18:41:40.774Z,37.80
2023-02-11T18:44:43.513Z,34.83
2023-02-11T18:47:46.244Z,33.58
2023-02-11T18:50:48.984Z,37.15
2023-02-11T18:53:51.590Z,37.03
2023-02-11T18:56:56.652Z,38.78
2023-02-11T18:59:59.360Z,39.20
2023-02-11T19:03:05.180Z,37.17
2023-02-11T19:06:13.120Z,37.63
2023-02-11T19:09:18.125Z,35.50
2023-02-11T19:12:21.046Z,46.70
2023-02-11T19:15:23.835Z,37.27
2023-02-11T19:18:27.636Z,33.28
2023-02-11T19:21:30.604Z,35.63
2023-02-11T19:24:33.986Z,33.42
2023-02-11T19:27:37.028Z,35.35
2023-02-11T19:30:40.446Z,34.63
2023-02-11T19:33:43.479Z,33.55
2023-02-11T19:36:46.647Z,39.17
2023-02-11T19:39:49.471Z,34.50
2023-02-11T19:42:52.318Z,43.35
2023-02-11T19:45:56.790Z,70.63
2023-02-11T19:49:00.899Z,62.88
2023-02-11T19:52:03.691Z,43.38
2023-02-11T19:55:07.155Z,47.95
2023-02-11T19:58:09.736Z,46.88
2023-02-11T20:01:16.564Z,64.93
2023-02-11T20:04:19.923Z,52.28
2023-02-11T20:07:28.215Z,44.00
2023-02-11T20:10:31.001Z,40.67
2023-02-11T20:13:34.322Z,41.72
2023-02-11T20:16:48.074Z,38.00
2023-02-11T20:19:51.789Z,39.78
2023-02-11T20:22:54.508Z,44.70
2023-02-11T20:25:57.354Z,36.45
2023-02-11T20:29:03.850Z,32.58
2023-02-11T20:32:07.594Z,30.47
2023-02-11T20:35:13.547Z,35.47
2023-02-11T20:38:16.643Z,34.97
2023-02-11T20:41:28.614Z,31.35
2023-02-11T20:44:31.445Z,37.45
2023-02-11T20:47:34.218Z,30.73
2023-02-11T20:50:37.079Z,35.53
2023-02-11T20:53:44.064Z,37.67
2023-02-11T20:56:48.226Z,32.63
2023-02-11T20:59:51.196Z,29.98
2023-02-11T21:02:53.907Z,32.10
2023-02-11T21:05:58.911Z,35.92
2023-02-11T21:09:02.257Z,36.03
2023-02-11T21:12:05.575Z,39.40
2023-02-11T21:15:12.792Z,25.42
2023-02-11T21:18:15.636Z,28.00
2023-02-11T21:21:19.614Z,29.55
2023-02-11T21:24:22.351Z,31.33
2023-02-11T21:27:31.117Z,30.27
2023-02-11T21:30:34.067Z,26.55
2023-02-11T21:33:36.708Z,27.60
2023-02-11T21:36:39.567Z,25.77
2023-02-11T21:39:43.366Z,28.80
2023-02-11T21:42:46.025Z,28.70
2023-02-11T21:45:51.298Z,22.23
2023-02-11T21:48:54.167Z,21.77
2023-02-11T21:51:56.798Z,22.10
2023-02-11T21:54:59.456Z,13.40
2023-02-11T21:58:02.228Z,16.85
2023-02-11T22:01:18.948Z,12.95
2023-02-11T22:04:21.837Z,15.60
2023-02-11T22:07:25.088Z,17.33
2023-02-11T22:10:27.672Z,15.45
2023-02-11T22:13:31.811Z,11.98
2023-02-11T22:16:41.647Z,17.27
2023-02-11T22:19:47.204Z,14.43
2023-02-11T22:22:50.918Z,15.77
2023-02-11T22:25:53.725Z,15.77
2023-02-11T22:28:57.299Z,15.63
2023-02-11T22:32:00.059Z,16.13
2023-02-11T22:35:02.788Z,15.50
2023-02-11T22:38:05.351Z,17.65
2023-02-11T22:41:10.289Z,17.98
2023-02-11T22:44:17.380Z,19.45
2023-02-11T22:47:19.908Z,17.35
2023-02-11T22:50:22.458Z,15.33
2023-02-11T22:53:25.657Z,14.40
2023-02-11T22:56:29.790Z,16.33
2023-02-11T22:59:32.446Z,17.55
2023-02-11T23:02:35.059Z,19.08
2023-02-11T23:05:41.628Z,15.70
2023-02-11T23:08:44.809Z,16.23
2023-02-11T23:11:49.477Z,16.02
2023-02-11T23:14:52.049Z,15.77
2023-02-11T23:17:57.283Z,16.73
2023-02-11T23:21:12.677Z,19.00
2023-02-11T23:24:15.766Z,15.25
2023-02-11T23:27:18.409Z,16.25
2023-02-11T23:30:22.083Z,16.20
2023-02-11T23:33:27.634Z,14.18
2023-02-11T23:36:30.649Z,21.57
2023-02-11T23:39:33.189Z,16.98
2023-02-11T23:42:35.732Z,15.95
2023-02-11T23:45:43.138Z,18.00
2023-02-11T23:48:48.485Z,18.27
2023-02-11T23:51:51.092Z,17.70
2023-02-11T23:54:53.732Z,17.35
2023-02-11T23:57:56.464Z,15.70
